Time;durP1;ratioP1;P1;durP2;ratioP2;P2;SDS_P1;SDS_P2;PMS_P1;PMS_P2;Temp;Humidity;BMP_temperature;BMP_pressure;BME280_temperature;BME280_humidity;BME280_pressure;Samples;Min_cycle;Max_cycle;Signal;HPM_P1;HPM_P2
2023/04/02 00:01:15;;;;;;;14.60;9.38;;;9.00;99.90;;;;;;5038599;28;20064;-65
2023/04/02 00:03:43;;;;;;;14.52;10.20;;;9.10;99.90;;;;;;5043853;28;20049;-64
2023/04/02 00:06:33;;;;;;;12.95;9.60;;;9.00;99.90;;;;;;5041602;28;20112;-64
2023/04/02 00:09:01;;;;;;;15.60;9.52;;;8.90;99.90;;;;;;5043741;28;20039;-64
2023/04/02 00:11:34;;;;;;;14.02;10.05;;;8.90;99.90;;;;;;5040403;28;20984;-64
2023/04/02 00:14:01;;;;;;;14.75;11.25;;;9.00;99.90;;;;;;5042830;28;20047;-64
2023/04/02 00:16:28;;;;;;;13.95;10.60;;;9.00;99.90;;;;;;5039036;28;20032;-64
2023/04/02 00:18:58;;;;;;;14.23;10.20;;;9.00;99.90;;;;;;5035962;28;20025;-64
2023/04/02 00:21:36;;;;;;;12.93;10.27;;;9.10;99.90;;;;;;5042411;28;20037;-65
2023/04/02 00:24:13;;;;;;;13.43;9.23;;;9.10;99.90;;;;;;5034607;28;20025;-64
2023/04/02 00:26:43;;;;;;;14.63;10.18;;;9.00;99.90;;;;;;5038639;28;20045;-64
2023/04/02 00:29:12;;;;;;;13.75;10.43;;;9.10;99.90;;;;;;5035544;28;20041;-64
2023/04/02 00:31:43;;;;;;;13.68;10.43;;;9.10;99.90;;;;;;5041063;28;20160;-64
2023/04/02 00:34:17;;;;;;;12.38;10.00;;;9.20;99.90;;;;;;5039063;28;20029;-64
2023/04/02 00:36:43;;;;;;;15.15;10.50;;;9.10;99.90;;;;;;5040333;28;20150;-65
2023/04/02 00:39:28;;;;;;;14.45;11.05;;;9.10;99.90;;;;;;5044243;28;20060;-65
2023/04/02 00:42:03;;;;;;;13.60;9.85;;;9.10;99.90;;;;;;5042739;28;20041;-65
2023/04/02 00:44:32;;;;;;;16.98;11.60;;;9.10;99.90;;;;;;5041830;28;20074;-65
2023/04/02 00:47:07;;;;;;;13.07;9.82;;;9.10;99.90;;;;;;5042987;28;20072;-66
2023/04/02 00:49:40;;;;;;;16.08;11.43;;;9.00;99.90;;;;;;5044665;28;20493;-64
2023/04/02 00:52:21;;;;;;;13.98;11.48;;;9.10;99.90;;;;;;5037212;28;20029;-64
2023/04/02 00:54:55;;;;;;;17.38;10.50;;;9.00;99.90;;;;;;5035333;28;20029;-64
2023/04/02 00:57:24;;;;;;;13.63;11.10;;;9.00;99.90;;;;;;5032477;28;20058;-64
2023/04/02 00:59:53;;;;;;;12.93;9.80;;;8.90;99.90;;;;;;5037822;28;20029;-64
2023/04/02 01:02:26;;;;;;;14.70;10.95;;;8.90;99.90;;;;;;5040875;28;20037;-64
2023/04/02 01:04:59;;;;;;;17.02;10.57;;;8.90;99.90;;;;;;5029134;28;20029;-64
2023/04/02 01:07:41;;;;;;;12.80;10.30;;;8.80;99.90;;;;;;5040743;28;20040;-64
2023/04/02 01:10:21;;;;;;;15.35;9.57;;;8.80;99.90;;;;;;5029189;28;20052;-64
2023/04/02 01:13:06;;;;;;;12.00;9.82;;;8.80;99.90;;;;;;5044462;28;20039;-65
2023/04/02 01:15:36;;;;;;;14.68;10.52;;;9.00;99.90;;;;;;5040106;28;20461;-64
2023/04/02 01:18:02;;;;;;;16.92;10.90;;;8.90;99.90;;;;;;5038680;28;20051;-65
2023/04/02 01:20:46;;;;;;;14.23;9.57;;;9.00;99.90;;;;;;5031356;28;20799;-65
2023/04/02 01:23:51;;;;;;;14.77;9.10;;;9.00;99.90;;;;;;5041409;28;20044;-65
2023/04/02 01:26:26;;;;;;;11.48;8.25;;;9.10;99.90;;;;;;5041476;28;20501;-65
2023/04/02 01:29:00;;;;;;;11.63;7.85;;;9.00;99.90;;;;;;5040983;28;20037;-64
2023/04/02 01:31:27;;;;;;;12.43;8.48;;;9.10;99.90;;;;;;5039662;28;20071;-64
2023/04/02 01:33:53;;;;;;;11.50;8.45;;;9.10;99.90;;;;;;5030929;28;20035;-64
2023/04/02 01:36:31;;;;;;;;;;;9.00;99.90;;;;;;5036540;28;20501;-65
2023/04/02 01:39:28;;;;;;;10.10;7.85;;;9.00;99.90;;;;;;5038861;28;20674;-64
2023/04/02 01:42:29;;;;;;;12.23;8.20;;;8.90;99.90;;;;;;5035584;28;20129;-64
2023/04/02 01:45:06;;;;;;;14.20;9.68;;;9.00;99.90;;;;;;5046228;28;20116;-64
2023/04/02 01:47:32;;;;;;;12.23;8.45;;;9.00;99.90;;;;;;5039745;28;20087;-64
2023/04/02 01:50:03;;;;;;;13.80;8.33;;;9.00;99.90;;;;;;5039139;28;20045;-65
2023/04/02 01:52:41;;;;;;;10.57;8.18;;;9.00;99.90;;;;;;5043964;28;21010;-64
2023/04/02 01:55:09;;;;;;;12.13;9.15;;;9.10;99.90;;;;;;5041111;28;20060;-64
2023/04/02 01:57:35;;;;;;;11.88;9.30;;;9.00;99.90;;;;;;5030125;28;20037;-65
2023/04/02 02:00:07;;;;;;;14.90;9.48;;;9.00;99.90;;;;;;5041296;28;20025;-64
2023/04/02 02:02:33;;;;;;;16.80;10.65;;;9.00;99.90;;;;;;5033282;28;20556;-65
2023/04/02 02:04:58;;;;;;;18.67;10.37;;;9.00;99.90;;;;;;5042328;28;20048;-65
2023/04/02 02:07:24;;;;;;;15.23;9.10;;;9.10;99.90;;;;;;5040466;28;20291;-64
2023/04/02 02:09:50;;;;;;;13.52;9.48;;;9.00;99.90;;;;;;5038017;28;20056;-65
2023/04/02 02:12:16;;;;;;;14.05;9.73;;;9.00;99.90;;;;;;5037270;28;20087;-64
2023/04/02 02:14:49;;;;;;;13.50;9.23;;;9.10;99.90;;;;;;5037937;28;20109;-64
2023/04/02 02:17:26;;;;;;;12.05;8.88;;;9.10;99.90;;;;;;5034343;28;20083;-64
2023/04/02 02:19:55;;;;;;;18.10;10.30;;;9.10;99.90;;;;;;5038413;28;20044;-65
2023/04/02 02:22:31;;;;;;;11.52;8.75;;;8.90;99.90;;;;;;5051599;28;20087;-65
2023/04/02 02:24:59;;;;;;;14.02;10.50;;;8.90;99.90;;;;;;5037975;28;20089;-64
2023/04/02 02:27:25;;;;;;;13.95;10.75;;;8.70;99.90;;;;;;5043231;28;20037;-64
2023/04/02 02:30:08;;;;;;;17.40;11.27;;;8.80;99.90;;;;;;5040883;28;20687;-64
2023/04/02 02:32:38;;;;;;;16.80;11.07;;;8.90;99.90;;;;;;5035500;28;20032;-64
2023/04/02 02:35:15;;;;;;;16.67;11.15;;;8.90;99.90;;;;;;5036569;28;20128;-65
2023/04/02 02:37:45;;;;;;;24.13;12.18;;;8.90;99.90;;;;;;5034436;28;20060;-64
2023/04/02 02:40:39;;;;;;;15.30;11.27;;;8.70;99.90;;;;;;5043772;28;20050;-65
2023/04/02 02:43:11;;;;;;;16.70;12.13;;;8.80;99.90;;;;;;5041258;28;20057;-64
2023/04/02 02:45:40;;;;;;;19.58;13.45;;;8.80;99.90;;;;;;5039590;28;20425;-65
2023/04/02 02:48:12;;;;;;;16.98;11.27;;;8.80;99.90;;;;;;5037098;28;20028;-64
2023/04/02 02:50:40;;;;;;;19.70;12.23;;;8.80;99.90;;;;;;5043063;28;20138;-65
2023/04/02 02:53:21;;;;;;;17.73;11.93;;;8.80;99.90;;;;;;5040647;28;20490;-64
2023/04/02 02:55:52;;;;;;;23.13;13.73;;;8.80;99.90;;;;;;5042645;28;20029;-64
2023/04/02 02:58:25;;;;;;;17.02;12.15;;;8.90;99.90;;;;;;5029373;28;20417;-64
2023/04/02 03:00:51;;;;;;;19.50;12.35;;;8.90;99.90;;;;;;5037239;28;20048;-64
2023/04/02 03:03:20;;;;;;;17.13;12.23;;;8.90;99.90;;;;;;5037974;28;20497;-64
2023/04/02 03:05:53;;;;;;;19.17;11.43;;;9.00;99.90;;;;;;5036627;28;20581;-63
2023/04/02 03:08:46;;;;;;;18.95;10.48;;;9.00;99.90;;;;;;5035780;28;20295;-64
2023/04/02 03:11:35;;;;;;;16.83;11.13;;;8.90;99.90;;;;;;5029874;28;20033;-64
2023/04/02 03:14:16;;;;;;;18.85;11.85;;;8.80;99.90;;;;;;5036763;28;20030;-65
2023/04/02 03:16:55;;;;;;;19.02;12.23;;;8.90;99.90;;;;;;5036817;28;20405;-65
2023/04/02 03:19:43;;;;;;;19.48;12.45;;;8.90;99.90;;;;;;5033078;28;20143;-64
2023/04/02 03:22:40;;;;;;;16.55;12.30;;;9.00;99.90;;;;;;5033801;28;20094;-64
2023/04/02 03:25:15;;;;;;;22.17;12.32;;;9.00;99.90;;;;;;5039741;28;20048;-64
2023/04/02 03:27:45;;;;;;;18.00;12.88;;;9.00;99.90;;;;;;5037564;28;20033;-65
2023/04/02 03:30:34;;;;;;;21.45;12.38;;;9.00;99.90;;;;;;5046669;28;20033;-65
2023/04/02 03:33:22;;;;;;;17.13;12.30;;;8.90;99.90;;;;;;5021112;28;20094;-65
2023/04/02 03:36:21;;;;;;;18.77;13.65;;;8.70;99.90;;;;;;5042173;28;20822;-65
2023/04/02 03:39:13;;;;;;;20.75;13.85;;;8.70;99.90;;;;;;5044755;28;20033;-63
2023/04/02 03:41:44;;;;;;;21.75;13.82;;;8.70;99.90;;;;;;5046339;28;20130;-63
2023/04/02 03:44:43;;;;;;;19.58;13.35;;;8.70;99.90;;;;;;5044189;28;20127;-64
2023/04/02 03:47:41;;;;;;;21.33;13.85;;;8.80;99.90;;;;;;5044604;28;20041;-64
2023/04/02 03:50:30;;;;;;;16.88;13.00;;;8.80;99.90;;;;;;5047523;28;20378;-64
2023/04/02 03:52:57;;;;;;;20.05;13.27;;;8.60;99.90;;;;;;5042574;28;20025;-64
2023/04/02 03:55:30;;;;;;;17.02;12.18;;;8.80;99.90;;;;;;5039190;28;20106;-65
2023/04/02 03:58:13;;;;;;;17.50;12.48;;;8.70;99.90;;;;;;5041928;28;20029;-65
2023/04/02 04:00:56;;;;;;;17.48;13.25;;;8.70;99.90;;;;;;5040282;28;20033;-64
2023/04/02 04:03:37;;;;;;;19.13;13.18;;;8.70;99.90;;;;;;5039419;28;20068;-63
2023/04/02 04:06:15;;;;;;;19.40;13.55;;;8.70;99.90;;;;;;5048016;28;20464;-65
2023/04/02 04:08:50;;;;;;;16.85;11.98;;;8.80;99.90;;;;;;5039376;28;20496;-64
2023/04/02 04:11:20;;;;;;;21.30;12.35;;;8.80;99.90;;;;;;5043447;28;20025;-65
2023/04/02 04:13:53;;;;;;;18.75;11.55;;;8.70;99.90;;;;;;5033980;28;20043;-64
2023/04/02 04:16:29;;;;;;;18.52;11.57;;;8.60;99.90;;;;;;5042817;28;20029;-65
2023/04/02 04:19:16;;;;;;;18.83;11.73;;;8.70;99.90;;;;;;5042365;28;20108;-64
2023/04/02 04:21:44;;;;;;;15.15;11.20;;;8.80;99.90;;;;;;5047189;28;20021;-65
2023/04/02 04:24:22;;;;;;;19.45;11.82;;;8.80;99.90;;;;;;5042230;28;20545;-65
2023/04/02 04:27:02;;;;;;;16.98;11.73;;;8.80;99.90;;;;;;5046811;28;20103;-65
2023/04/02 04:30:04;;;;;;;19.63;11.30;;;8.80;99.90;;;;;;5049454;28;20048;-65
2023/04/02 04:32:35;;;;;;;14.32;10.07;;;8.90;99.90;;;;;;5040667;28;20032;-65
2023/04/02 04:35:25;;;;;;;14.05;10.60;;;8.90;99.90;;;;;;5037518;28;20116;-64
2023/04/02 04:38:02;;;;;;;14.82;10.45;;;8.80;99.90;;;;;;5040757;28;20064;-65
2023/04/02 04:40:30;;;;;;;;;;;8.80;99.90;;;;;;5037508;28;20441;-64
2023/04/02 04:43:02;;;;;;;13.70;9.75;;;8.90;99.90;;;;;;5036599;28;19921;-65
2023/04/02 04:45:43;;;;;;;12.57;9.10;;;8.70;99.90;;;;;;5039444;28;20037;-64
2023/04/02 04:48:20;;;;;;;12.32;9.60;;;8.50;99.90;;;;;;5037956;28;20406;-64
2023/04/02 04:50:50;;;;;;;16.58;10.80;;;8.70;99.90;;;;;;5046705;28;20527;-64
2023/04/02 04:53:21;;;;;;;15.13;11.18;;;8.80;99.90;;;;;;5042587;28;20462;-64
2023/04/02 04:55:50;;;;;;;18.65;12.38;;;8.80;99.90;;;;;;5038857;28;20161;-64
2023/04/02 04:58:30;;;;;;;17.33;11.13;;;8.80;99.90;;;;;;5037491;28;20434;-65
2023/04/02 05:01:17;;;;;;;16.58;11.48;;;8.80;99.90;;;;;;5037154;28;20025;-65
2023/04/02 05:04:15;;;;;;;18.80;12.10;;;8.90;99.90;;;;;;5037486;28;20508;-65
2023/04/02 05:07:03;;;;;;;20.25;12.27;;;8.90;99.90;;;;;;5034720;28;20413;-65
2023/04/02 05:09:32;;;;;;;17.20;10.73;;;9.00;99.90;;;;;;5038494;28;20029;-65
2023/04/02 05:12:23;;;;;;;21.48;12.02;;;9.00;99.90;;;;;;5030952;28;20029;-66
2023/04/02 05:15:15;;;;;;;21.83;11.13;;;8.80;99.90;;;;;;5039702;28;20386;-65
2023/04/02 05:17:49;;;;;;;20.02;12.05;;;8.80;99.90;;;;;;5039945;28;20118;-65
2023/04/02 05:20:42;;;;;;;20.33;12.93;;;8.90;99.90;;;;;;5032640;28;20202;-65
2023/04/02 05:23:27;;;;;;;20.77;13.38;;;8.90;99.90;;;;;;5040861;28;20041;-65
2023/04/02 05:25:58;;;;;;;21.52;13.57;;;8.90;99.90;;;;;;5040145;28;20036;-65
2023/04/02 05:28:47;;;;;;;21.77;14.60;;;8.90;99.90;;;;;;5043487;28;20028;-65
2023/04/02 05:31:20;;;;;;;25.60;14.93;;;8.80;99.90;;;;;;5034340;28;20043;-65
2023/04/02 05:33:47;;;;;;;22.55;15.50;;;8.70;99.90;;;;;;5038888;28;20079;-64
2023/04/02 05:36:23;;;;;;;24.25;16.55;;;8.70;99.90;;;;;;5038568;28;20103;-65
2023/04/02 05:38:50;;;;;;;21.70;16.23;;;8.80;99.90;;;;;;5037942;28;20041;-65
2023/04/02 05:41:31;;;;;;;20.85;15.18;;;8.80;99.90;;;;;;5037185;28;20026;-65
2023/04/02 05:44:30;;;;;;;25.88;16.63;;;8.80;99.90;;;;;;5041335;28;20374;-65
2023/04/02 05:47:05;;;;;;;19.38;12.23;;;8.80;99.90;;;;;;5038839;28;20025;-64
2023/04/02 05:49:40;;;;;;;19.38;14.13;;;8.70;99.90;;;;;;5036559;28;20037;-64
2023/04/02 05:52:10;;;;;;;21.10;14.45;;;8.80;99.90;;;;;;5035366;28;20037;-65
2023/04/02 05:54:44;;;;;;;27.95;15.85;;;8.80;99.90;;;;;;5035232;28;20030;-65
2023/04/02 05:57:19;;;;;;;20.70;15.45;;;8.80;99.90;;;;;;5038833;28;20415;-65
2023/04/02 05:59:54;;;;;;;19.67;13.23;;;8.80;99.90;;;;;;5035664;28;20108;-65
2023/04/02 06:02:40;;;;;;;16.48;11.95;;;8.80;99.90;;;;;;5035894;28;20505;-65
2023/04/02 06:05:27;;;;;;;14.05;9.30;;;8.80;99.90;;;;;;5038538;28;20576;-65
2023/04/02 06:08:07;;;;;;;12.38;8.45;;;9.00;99.90;;;;;;5034570;28;20033;-64
2023/04/02 06:10:46;;;;;;;13.18;7.35;;;9.10;99.90;;;;;;5039404;28;20065;-65
2023/04/02 06:13:18;;;;;;;7.20;5.35;;;9.10;99.90;;;;;;5036600;28;20086;-65
2023/04/02 06:15:44;;;;;;;8.50;5.72;;;9.00;99.90;;;;;;5037482;28;20046;-65
2023/04/02 06:18:26;;;;;;;9.90;5.45;;;9.10;99.90;;;;;;5034596;28;20407;-64
2023/04/02 06:20:51;;;;;;;7.57;5.28;;;9.20;99.90;;;;;;5043459;28;20436;-65
2023/04/02 06:23:30;;;;;;;7.17;4.73;;;9.20;99.90;;;;;;5033701;28;20041;-65
2023/04/02 06:26:00;;;;;;;7.88;4.32;;;9.20;99.90;;;;;;5034835;28;20115;-65
2023/04/02 06:28:48;;;;;;;6.97;4.10;;;9.20;99.90;;;;;;5039013;28;20094;-64
2023/04/02 06:31:27;;;;;;;;;;;9.20;99.90;;;;;;5034949;28;20025;-65
2023/04/02 06:33:55;;;;;;;7.65;3.80;;;9.20;99.90;;;;;;5044460;28;19952;-65
2023/04/02 06:36:22;;;;;;;8.02;4.18;;;9.10;99.90;;;;;;5035765;28;20024;-65
2023/04/02 06:38:49;;;;;;;4.80;3.00;;;9.30;99.90;;;;;;5035678;28;20044;-65
2023/04/02 06:41:23;;;;;;;5.65;3.28;;;9.20;99.90;;;;;;5037641;28;20032;-64
2023/04/02 06:44:18;;;;;;;10.50;5.45;;;9.20;99.90;;;;;;5037005;28;20028;-64
2023/04/02 06:46:52;;;;;;;9.00;5.05;;;9.30;99.90;;;;;;5041164;28;20111;-64
2023/04/02 06:49:50;;;;;;;8.02;4.45;;;9.40;99.90;;;;;;5040122;28;20463;-64
2023/04/02 06:52:22;;;;;;;7.82;3.58;;;9.40;99.90;;;;;;5037853;28;20124;-65
2023/04/02 06:54:48;;;;;;;9.63;4.20;;;9.40;99.90;;;;;;5037167;28;20048;-64
2023/04/02 06:57:14;;;;;;;5.00;3.37;;;9.50;99.90;;;;;;5039053;28;20352;-65
2023/04/02 06:59:40;;;;;;;3.80;2.70;;;9.60;99.90;;;;;;5041499;28;20037;-65
2023/04/02 07:02:27;;;;;;;3.70;2.47;;;9.50;99.90;;;;;;5035744;28;20460;-65
2023/04/02 07:04:58;;;;;;;5.35;2.60;;;9.30;99.90;;;;;;5035930;28;20560;-65
2023/04/02 07:07:24;;;;;;;4.03;2.72;;;9.30;99.90;;;;;;5033638;28;20041;-66
2023/04/02 07:09:50;;;;;;;6.53;2.73;;;9.40;99.90;;;;;;5035449;28;20375;-64
2023/04/02 07:12:23;;;;;;;4.78;3.15;;;9.40;99.90;;;;;;5030170;28;20793;-64
2023/04/02 07:14:50;;;;;;;3.97;2.80;;;9.40;99.90;;;;;;5032676;28;20029;-65
2023/04/02 07:17:17;;;;;;;6.13;3.80;;;9.40;99.90;;;;;;5033090;28;20030;-65
2023/04/02 07:19:44;;;;;;;3.95;2.85;;;9.50;99.90;;;;;;5041756;28;20025;-66
2023/04/02 07:22:10;;;;;;;3.08;2.35;;;9.50;99.90;;;;;;5039069;28;20193;-66
2023/04/02 07:24:36;;;;;;;4.93;3.08;;;9.60;99.90;;;;;;5039843;28;20044;-65
2023/04/02 07:27:02;;;;;;;3.90;2.70;;;9.60;99.90;;;;;;5041071;28;20033;-64
2023/04/02 07:29:27;;;;;;;5.70;2.63;;;9.70;99.90;;;;;;5034274;28;20495;-65
2023/04/02 07:31:53;;;;;;;6.83;3.10;;;9.70;99.90;;;;;;5033340;28;20041;-66
2023/04/02 07:34:18;;;;;;;6.77;4.77;;;9.70;99.90;;;;;;5042217;28;20604;-66
2023/04/02 07:36:44;;;;;;;2.80;2.40;;;9.60;99.90;;;;;;5036051;28;20029;-64
2023/04/02 07:39:11;;;;;;;3.42;2.53;;;9.50;99.90;;;;;;5040815;28;20033;-65
2023/04/02 07:41:54;;;;;;;4.13;2.40;;;9.60;99.90;;;;;;5037728;28;20516;-65
2023/04/02 07:44:20;;;;;;;4.80;2.15;;;9.60;99.90;;;;;;5040033;28;20146;-64
2023/04/02 07:46:45;;;;;;;3.83;2.50;;;9.70;99.90;;;;;;5039018;28;20112;-65
2023/04/02 07:49:11;;;;;;;5.33;2.90;;;9.70;99.90;;;;;;5040053;28;20036;-65
2023/04/02 07:51:36;;;;;;;8.43;5.37;;;9.80;99.90;;;;;;5041910;28;20033;-65
2023/04/02 07:54:03;;;;;;;6.60;3.83;;;9.70;99.90;;;;;;5036507;28;20045;-64
2023/04/02 07:56:29;;;;;;;7.68;6.10;;;9.80;99.90;;;;;;5042977;28;20049;-65
2023/04/02 07:58:55;;;;;;;6.63;3.60;;;9.80;99.90;;;;;;5033559;28;21013;-64
2023/04/02 08:01:24;;;;;;;11.77;6.95;;;9.70;99.90;;;;;;5035194;28;20636;-64
2023/04/02 08:03:54;;;;;;;5.10;3.92;;;9.70;99.90;;;;;;5043438;28;20071;-65
2023/04/02 08:06:20;;;;;;;6.75;2.97;;;9.50;99.90;;;;;;5040666;28;20080;-64
2023/04/02 08:08:46;;;;;;;5.13;3.33;;;9.40;99.90;;;;;;5033399;28;20485;-64
2023/04/02 08:11:12;;;;;;;7.50;5.30;;;9.50;99.90;;;;;;5042136;28;20040;-65
2023/04/02 08:13:38;;;;;;;5.45;3.13;;;9.70;99.90;;;;;;5036654;28;20025;-65
2023/04/02 08:16:05;;;;;;;15.20;3.30;;;9.90;99.90;;;;;;5039163;28;20037;-64
2023/04/02 08:18:31;;;;;;;3.10;2.60;;;10.10;99.90;;;;;;5040758;28;20025;-65
2023/04/02 08:20:57;;;;;;;4.50;2.40;;;10.30;99.90;;;;;;5037630;28;20048;-65
2023/04/02 08:23:24;;;;;;;2.90;2.35;;;10.40;99.90;;;;;;5038101;28;20036;-65
2023/04/02 08:25:50;;;;;;;2.47;1.80;;;10.40;99.90;;;;;;5036916;28;20484;-65
2023/04/02 08:28:16;;;;;;;;;;;10.50;99.90;;;;;;5040793;28;20493;-66
2023/04/02 08:30:42;;;;;;;2.38;2.00;;;10.40;99.90;;;;;;5038730;28;19909;-65
2023/04/02 08:33:08;;;;;;;2.30;1.63;;;10.30;99.90;;;;;;5039576;28;20040;-69
2023/04/02 08:35:34;;;;;;;2.30;1.80;;;10.40;99.90;;;;;;5034097;28;20037;-66
2023/04/02 08:38:00;;;;;;;2.80;1.40;;;10.50;99.90;;;;;;5035128;28;20029;-66
2023/04/02 08:40:32;;;;;;;1.67;1.42;;;10.70;99.90;;;;;;5038734;28;20148;-69
2023/04/02 08:43:17;;;;;;;1.88;1.50;;;11.00;99.90;;;;;;5050786;28;20045;-66
2023/04/02 08:45:51;;;;;;;2.78;1.40;;;10.90;99.90;;;;;;5038440;28;20025;-67
2023/04/02 08:48:17;;;;;;;1.55;1.23;;;11.00;99.90;;;;;;5043229;28;20087;-65
2023/04/02 08:50:44;;;;;;;1.58;1.20;;;11.10;99.90;;;;;;5034740;28;20029;-65
2023/04/02 08:53:16;;;;;;;4.18;1.60;;;10.80;99.90;;;;;;5038324;28;20041;-65
2023/04/02 08:56:22;;;;;;;4.68;1.33;;;11.00;99.90;;;;;;5034486;28;20035;-65
2023/04/02 08:58:58;;;;;;;2.63;1.95;;;10.80;99.90;;;;;;5043855;28;20378;-65
2023/04/02 09:01:34;;;;;;;3.55;2.67;;;10.90;99.90;;;;;;5037101;28;20051;-66
2023/04/02 09:04:04;;;;;;;4.38;3.17;;;11.00;99.90;;;;;;5037291;28;20439;-66
2023/04/02 09:06:30;;;;;;;4.93;3.17;;;10.90;99.90;;;;;;5050256;28;20016;-67
2023/04/02 09:08:57;;;;;;;5.22;2.50;;;11.00;99.90;;;;;;5042330;28;20397;-66
2023/04/02 09:11:47;;;;;;;5.68;3.85;;;11.10;99.90;;;;;;5030209;28;20065;-65
2023/04/02 09:14:19;;;;;;;6.60;4.28;;;11.20;99.90;;;;;;5035759;28;20043;-66
2023/04/02 09:16:53;;;;;;;4.20;2.67;;;11.00;99.90;;;;;;5036723;28;20028;-65
2023/04/02 09:19:29;;;;;;;9.60;5.93;;;11.30;99.90;;;;;;5042963;28;20036;-65
2023/04/02 09:22:21;;;;;;;4.30;3.00;;;11.50;99.90;;;;;;5047794;28;20025;-65
2023/04/02 09:24:57;;;;;;;10.38;6.30;;;11.90;99.90;;;;;;5053353;28;20051;-65
2023/04/02 09:27:26;;;;;;;6.68;2.53;;;11.60;99.90;;;;;;5054183;28;20118;-65
2023/04/02 09:30:20;;;;;;;3.53;1.88;;;11.30;99.90;;;;;;5052317;28;20373;-64
2023/04/02 09:32:51;;;;;;;4.53;2.90;;;11.80;99.90;;;;;;5054345;28;20102;-66
2023/04/02 09:35:20;;;;;;;3.35;1.65;;;12.50;99.90;;;;;;5052791;28;20404;-68
2023/04/02 09:37:47;;;;;;;10.20;5.80;;;12.60;99.90;;;;;;5053421;28;20024;-65
2023/04/02 09:40:25;;;;;;;6.15;3.92;;;12.90;99.90;;;;;;5055556;28;20032;-65
2023/04/02 09:43:12;;;;;;;4.95;3.20;;;12.70;99.90;;;;;;5052659;28;20059;-65
2023/04/02 09:45:39;;;;;;;8.75;5.63;;;13.40;99.90;;;;;;5039367;28;20508;-65
2023/04/02 09:48:31;;;;;;;5.07;1.08;;;13.10;99.90;;;;;;5056554;28;20115;-65
2023/04/02 09:51:06;;;;;;;4.40;2.00;;;12.80;99.90;;;;;;5054600;28;20033;-65
2023/04/02 09:53:34;;;;;;;5.78;3.22;;;12.90;99.90;;;;;;5053888;28;20016;-65
2023/04/02 09:56:10;;;;;;;3.35;1.30;;;13.20;99.90;;;;;;5054472;28;20115;-65
2023/04/02 09:58:36;;;;;;;1.65;1.20;;;12.90;99.90;;;;;;5054977;28;20555;-65
2023/04/02 10:01:03;;;;;;;2.63;0.95;;;12.80;99.90;;;;;;5052137;28;20461;-65
2023/04/02 10:03:34;;;;;;;3.13;1.13;;;12.90;99.90;;;;;;5052968;28;20036;-65
2023/04/02 10:06:07;;;;;;;10.88;4.88;;;12.70;99.90;;;;;;5054193;28;20029;-65
2023/04/02 10:08:34;;;;;;;6.57;2.25;;;12.60;99.90;;;;;;5055431;28;20032;-66
2023/04/02 10:11:05;;;;;;;9.70;5.47;;;12.50;99.90;;;;;;5055306;28;20029;-67
2023/04/02 10:13:52;;;;;;;23.98;11.95;;;12.30;99.90;;;;;;5054245;28;20050;-66
2023/04/02 10:16:26;;;;;;;13.02;7.40;;;11.50;99.90;;;;;;5055863;28;20028;-67
2023/04/02 10:18:54;;;;;;;20.13;10.77;;;11.30;99.90;;;;;;5054865;28;20466;-66
2023/04/02 10:21:31;;;;;;;8.57;3.47;;;11.20;99.90;;;;;;5053150;28;20454;-67
2023/04/02 10:23:58;;;;;;;13.27;5.93;;;11.40;99.90;;;;;;5050482;28;20036;-67
2023/04/02 10:26:37;;;;;;;8.05;3.92;;;11.60;99.90;;;;;;5053959;28;20298;-67
2023/04/02 10:29:21;;;;;;;2.55;1.02;;;11.40;99.90;;;;;;5053656;28;20385;-67
2023/04/02 10:32:01;;;;;;;18.00;11.25;;;11.00;99.90;;;;;;5055004;28;20373;-65
2023/04/02 10:34:27;;;;;;;12.63;6.32;;;11.00;99.90;;;;;;5048241;28;20032;-68
2023/04/02 10:37:17;;;;;;;6.03;3.40;;;11.10;99.90;;;;;;5048820;28;20484;-66
2023/04/02 10:39:49;;;;;;;5.72;2.75;;;11.40;99.90;;;;;;5038704;28;20051;-65
2023/04/02 10:42:20;;;;;;;10.75;6.53;;;11.80;99.90;;;;;;5054584;28;20497;-65
2023/04/02 10:45:16;;;;;;;11.98;6.38;;;12.30;99.90;;;;;;5053506;28;20033;-66
2023/04/02 10:47:59;;;;;;;16.27;7.97;;;12.20;99.90;;;;;;5049093;28;20115;-66
2023/04/02 10:50:39;;;;;;;2.13;1.23;;;11.80;99.90;;;;;;5054861;28;20029;-66
2023/04/02 10:53:15;;;;;;;16.27;9.55;;;11.80;99.90;;;;;;5054271;28;20115;-65
2023/04/02 10:55:57;;;;;;;10.50;5.80;;;11.90;99.90;;;;;;5049154;28;20037;-64
2023/04/02 10:58:25;;;;;;;11.50;5.88;;;12.00;99.90;;;;;;5054932;28;20040;-65
2023/04/02 11:00:57;;;;;;;10.77;4.80;;;12.00;99.90;;;;;;5054749;28;20020;-65
2023/04/02 11:03:36;;;;;;;6.18;3.05;;;12.00;99.90;;;;;;5050093;28;20045;-64
2023/04/02 11:06:22;;;;;;;0.70;0.60;;;11.80;99.90;;;;;;5053175;28;20041;-66
2023/04/02 11:08:51;;;;;;;1.52;1.05;;;11.60;99.90;;;;;;5053185;28;20431;-65
2023/04/02 11:11:21;;;;;;;0.90;0.90;;;11.70;99.90;;;;;;5052485;28;20086;-66
2023/04/02 11:13:55;;;;;;;1.30;0.80;;;11.60;99.90;;;;;;5050082;28;20032;-68
2023/04/02 11:16:21;;;;;;;2.35;1.05;;;11.40;99.90;;;;;;5048139;28;20037;-66
2023/04/02 11:19:15;;;;;;;2.42;1.60;;;11.20;99.90;;;;;;5044944;28;20052;-65
2023/04/02 11:21:43;;;;;;;2.22;1.48;;;11.30;99.90;;;;;;5042587;28;20040;-66
2023/04/02 11:24:35;;;;;;;9.18;4.07;;;11.30;99.90;;;;;;5041450;28;20033;-67
2023/04/02 11:27:10;;;;;;;9.05;4.93;;;11.40;99.90;;;;;;5042007;28;20129;-66
2023/04/02 11:30:02;;;;;;;1.83;1.05;;;11.80;99.90;;;;;;5040223;28;20044;-65
2023/04/02 11:32:30;;;;;;;1.70;0.90;;;12.00;99.90;;;;;;5033612;28;20033;-64
2023/04/02 11:34:58;;;;;;;6.13;3.78;;;11.90;99.90;;;;;;5044396;28;20028;-65
2023/04/02 11:37:43;;;;;;;5.60;2.78;;;12.00;99.90;;;;;;5054294;28;20029;-65
2023/04/02 11:40:14;;;;;;;2.05;1.27;;;11.80;99.90;;;;;;5053699;28;20048;-65
2023/04/02 11:42:44;;;;;;;2.45;1.30;;;11.60;99.90;;;;;;5053529;28;20388;-65
2023/04/02 11:45:22;;;;;;;6.78;3.67;;;11.90;99.90;;;;;;5052931;28;20290;-64
2023/04/02 11:48:00;;;;;;;4.07;2.72;;;12.00;99.90;;;;;;5054622;28;20122;-67
2023/04/02 11:50:48;;;;;;;36.55;14.30;;;11.80;99.90;;;;;;5054284;28;20037;-66
2023/04/02 11:53:33;;;;;;;7.72;3.50;;;11.70;99.90;;;;;;5054248;28;20045;-66
2023/04/02 11:56:42;;;;;;;33.20;12.20;;;11.40;99.90;;;;;;5056771;28;20032;-65
2023/04/02 11:59:39;;;;;;;35.22;16.52;;;11.40;99.90;;;;;;5057070;28;20119;-65
2023/04/02 12:02:27;;;;;;;6.68;4.05;;;11.30;99.90;;;;;;5055286;28;20214;-65
2023/04/02 12:05:35;;;;;;;3.50;2.35;;;11.20;99.90;;;;;;5057166;28;20086;-65
2023/04/02 12:08:18;;;;;;;3.53;3.22;;;11.20;99.90;;;;;;5053244;28;20029;-66
2023/04/02 12:11:01;;;;;;;3.35;1.20;;;11.10;99.90;;;;;;5056104;28;20033;-67
2023/04/02 12:13:39;;;;;;;2.50;1.70;;;11.00;99.90;;;;;;5057897;28;20026;-67
2023/04/02 12:16:07;;;;;;;2.15;1.48;;;11.20;99.90;;;;;;5058438;28;20462;-66
2023/04/02 12:18:33;;;;;;;1.67;1.58;;;11.50;99.90;;;;;;5051736;28;20526;-67
2023/04/02 12:21:00;;;;;;;;;;;11.60;99.90;;;;;;5054387;28;20070;-66
2023/04/02 12:23:32;;;;;;;5.90;3.20;;;11.40;99.90;;;;;;5056672;28;20015;-65
2023/04/02 12:26:05;;;;;;;3.25;2.25;;;11.50;99.90;;;;;;5056530;28;20087;-67
2023/04/02 12:28:32;;;;;;;4.22;2.88;;;11.60;99.90;;;;;;5055883;28;20035;-66
2023/04/02 12:31:16;;;;;;;4.50;2.50;;;11.60;99.90;;;;;;5056131;28;20044;-65
2023/04/02 12:33:42;;;;;;;3.85;2.25;;;11.60;99.90;;;;;;5057607;28;20504;-66
2023/04/02 12:36:12;;;;;;;2.20;2.00;;;11.50;99.90;;;;;;5053614;28;20071;-66
2023/04/02 12:38:48;;;;;;;1.63;1.52;;;11.50;99.90;;;;;;5055887;28;20082;-66
2023/04/02 12:41:25;;;;;;;2.10;1.50;;;11.30;99.90;;;;;;5054220;28;20033;-66
2023/04/02 12:43:58;;;;;;;1.20;1.10;;;11.20;99.90;;;;;;5056726;28;20508;-66
2023/04/02 12:46:24;;;;;;;1.88;1.60;;;11.00;99.90;;;;;;5055098;28;20358;-68
2023/04/02 12:49:03;;;;;;;4.47;1.85;;;10.90;99.90;;;;;;5050872;28;20137;-67
2023/04/02 12:51:29;;;;;;;2.60;2.35;;;10.90;99.90;;;;;;5055514;28;20024;-65
2023/04/02 12:53:56;;;;;;;1.70;1.50;;;10.80;99.90;;;;;;5052538;28;20024;-66
2023/04/02 12:56:22;;;;;;;3.47;2.15;;;10.80;99.90;;;;;;5053454;28;20031;-66
2023/04/02 12:58:52;;;;;;;;;;;10.90;99.90;;;;;;5054164;28;20484;-66
2023/04/02 13:01:22;;;;;;;1.25;0.75;;;11.00;99.90;;;;;;5055094;28;20315;-67
2023/04/02 13:04:11;;;;;;;1.20;0.93;;;11.00;99.90;;;;;;5055869;28;20044;-66
2023/04/02 13:06:38;;;;;;;3.97;1.52;;;11.00;99.90;;;;;;5055167;28;20055;-67
2023/04/02 13:09:26;;;;;;;1.13;1.00;;;11.00;99.90;;;;;;5055956;28;20047;-67
2023/04/02 13:11:52;;;;;;;3.47;1.20;;;11.00;99.90;;;;;;5054786;28;20045;-66
2023/04/02 13:14:20;;;;;;;1.57;1.27;;;11.20;99.90;;;;;;5055225;28;20587;-66
2023/04/02 13:16:46;;;;;;;3.70;1.60;;;11.60;99.90;;;;;;5055790;28;20040;-67
2023/04/02 13:19:32;;;;;;;4.45;1.60;;;11.80;99.90;;;;;;5055381;28;20130;-65
2023/04/02 13:22:02;;;;;;;3.17;2.42;;;11.60;99.90;;;;;;5051045;28;20835;-65
2023/04/02 13:24:30;;;;;;;2.03;1.80;;;11.50;99.90;;;;;;5037189;28;21036;-66
2023/04/02 13:26:59;;;;;;;2.28;1.70;;;11.50;99.90;;;;;;5050334;28;20120;-66